createdAt,value
2018-07-04T00:01:15.441Z,36.49
2018-07-04T00:03:55.461Z,37.86
2018-07-04T00:06:38.756Z,38.06
2018-07-04T00:09:19.944Z,38.93
2018-07-04T00:11:59.484Z,39.38
2018-07-04T00:14:39.475Z,40.13
2018-07-04T00:17:20.379Z,40.05
2018-07-04T00:19:59.906Z,41.11
2018-07-04T00:22:39.526Z,41.17
2018-07-04T00:25:22.970Z,42.17
2018-07-04T00:28:06.695Z,42.09
2018-07-04T00:30:51.540Z,42.48
2018-07-04T00:33:31.405Z,42.66
2018-07-04T00:36:11.357Z,43.81
2018-07-04T00:38:54.799Z,44.29
2018-07-04T00:41:34.739Z,44.46
2018-07-04T00:44:14.360Z,44.83
2018-07-04T00:49:38.476Z,45.46
2018-07-04T00:52:18.302Z,46.03
2018-07-04T00:54:57.926Z,45.75
2018-07-04T00:57:37.911Z,46.63
2018-07-04T01:00:17.637Z,46.64
2018-07-04T01:02:57.796Z,45.98
2018-07-04T01:05:37.659Z,46.68
2018-07-04T01:08:17.440Z,47.81
2018-07-04T01:10:57.046Z,48.15
2018-07-04T01:13:37.019Z,48.18
2018-07-04T01:16:16.618Z,47.62
2018-07-04T01:18:56.504Z,48.82
2018-07-04T01:21:36.175Z,48.10
2018-07-04T01:24:17.208Z,49.02
2018-07-04T01:26:56.723Z,48.54
2018-07-04T01:29:36.299Z,48.32
2018-07-04T01:32:16.682Z,49.45
2018-07-04T01:34:56.596Z,49.98
2018-07-04T01:37:36.895Z,49.21
2018-07-04T01:40:16.920Z,50.01
2018-07-04T01:42:56.823Z,49.50
2018-07-04T01:45:38.564Z,49.71
2018-07-04T01:48:22.054Z,50.51
2018-07-04T01:51:01.662Z,50.63
2018-07-04T01:53:41.577Z,50.45
2018-07-04T01:56:21.445Z,51.15
2018-07-04T01:59:01.250Z,50.69
2018-07-04T02:01:44.524Z,51.85
2018-07-04T02:04:24.193Z,51.47
2018-07-04T02:07:06.192Z,52.24
2018-07-04T02:09:48.203Z,50.96
2018-07-04T02:12:28.105Z,51.72
2018-07-04T02:15:07.797Z,51.99
2018-07-04T02:17:51.635Z,52.70
2018-07-04T02:20:35.093Z,53.06
2018-07-04T02:23:16.296Z,53.33
2018-07-04T02:25:56.080Z,53.91
2018-07-04T02:31:22.392Z,53.84
2018-07-04T02:34:03.055Z,53.70
2018-07-04T02:36:42.598Z,54.20
2018-07-04T02:39:22.820Z,54.02
2018-07-04T02:42:02.853Z,54.29
2018-07-04T02:44:53.754Z,53.98
2018-07-04T02:47:37.303Z,54.01
2018-07-04T02:50:17.912Z,54.59
2018-07-04T02:52:57.624Z,55.09
2018-07-04T02:55:37.755Z,55.52
2018-07-04T02:58:20.473Z,55.52
2018-07-04T03:01:00.590Z,55.68
2018-07-04T03:03:40.620Z,55.24
2018-07-04T03:06:24.268Z,56.21
2018-07-04T03:09:04.609Z,55.75
2018-07-04T03:11:50.136Z,55.50
2018-07-04T03:14:29.918Z,56.24
2018-07-04T03:17:09.940Z,55.54
2018-07-04T03:19:49.631Z,56.02
2018-07-04T03:22:34.400Z,55.73
2018-07-04T03:25:13.956Z,56.02
2018-07-04T03:27:54.134Z,55.35
2018-07-04T03:30:33.783Z,55.53
2018-07-04T03:33:13.792Z,56.12
2018-07-04T03:35:53.830Z,56.55
2018-07-04T03:38:38.519Z,56.80
2018-07-04T03:41:18.056Z,56.64
2018-07-04T03:43:58.106Z,56.80
2018-07-04T03:46:37.983Z,57.06
2018-07-04T03:49:17.980Z,56.74
2018-07-04T03:51:58.603Z,56.88
2018-07-04T03:54:38.580Z,57.17
2018-07-04T03:57:18.241Z,56.92
2018-07-04T03:59:58.355Z,56.57
2018-07-04T04:02:38.380Z,57.18
2018-07-04T04:05:19.703Z,56.25
2018-07-04T04:10:45.421Z,56.74
2018-07-04T04:13:25.024Z,56.59
2018-07-04T04:16:05.019Z,56.38
2018-07-04T04:18:44.599Z,55.41
2018-07-04T04:21:24.608Z,55.28
2018-07-04T04:24:04.514Z,54.83
2018-07-04T04:26:44.608Z,55.28
2018-07-04T04:29:26.135Z,54.24
2018-07-04T04:32:16.655Z,54.20
2018-07-04T04:34:56.387Z,55.29
2018-07-04T04:37:38.692Z,55.23
2018-07-04T04:40:18.230Z,55.06
2018-07-04T04:42:57.885Z,54.75
2018-07-04T04:45:41.392Z,55.37
2018-07-04T04:48:24.826Z,55.70
2018-07-04T04:51:04.751Z,56.33
2018-07-04T04:53:46.169Z,55.52
2018-07-04T04:56:26.586Z,55.55
2018-07-04T04:59:06.228Z,55.07
2018-07-04T05:01:46.220Z,54.89
2018-07-04T05:04:25.971Z,54.67
2018-07-04T05:07:06.033Z,55.53
2018-07-04T05:09:45.603Z,55.50
2018-07-04T05:12:34.302Z,54.82
2018-07-04T05:15:14.488Z,55.27
2018-07-04T05:17:54.455Z,54.21
2018-07-04T05:20:34.187Z,54.94
2018-07-04T05:23:15.705Z,55.01
2018-07-04T05:25:55.307Z,55.55
2018-07-04T05:28:35.390Z,55.59
2018-07-04T05:31:17.081Z,55.46
2018-07-04T05:34:00.638Z,54.37
2018-07-04T05:36:40.376Z,54.40
2018-07-04T05:39:20.308Z,54.63
2018-07-04T05:41:59.849Z,54.30
2018-07-04T05:44:39.867Z,54.41
2018-07-04T05:47:19.604Z,55.06
2018-07-04T05:50:01.428Z,53.94
2018-07-04T05:52:41.815Z,53.94
2018-07-04T05:55:21.978Z,54.39
2018-07-04T05:58:03.236Z,54.43
2018-07-04T06:00:45.023Z,53.47
2018-07-04T06:03:24.726Z,53.89
2018-07-04T06:06:04.774Z,53.73
2018-07-04T06:08:44.621Z,53.11
2018-07-04T06:11:25.499Z,53.82
2018-07-04T06:14:08.669Z,51.99
2018-07-04T06:16:51.624Z,51.54
2018-07-04T06:19:35.072Z,52.76
2018-07-04T06:22:15.919Z,52.35
2018-07-04T06:24:59.989Z,50.94
2018-07-04T06:27:41.416Z,51.33
2018-07-04T06:30:20.951Z,50.61
2018-07-04T06:33:05.654Z,50.86
2018-07-04T06:35:51.308Z,49.83
2018-07-04T06:38:18.974Z,49.90
2018-07-04T06:40:46.257Z,47.18
2018-07-04T06:43:13.537Z,46.77
2018-07-04T06:48:23.479Z,46.56
2018-07-04T06:50:50.753Z,46.45
2018-07-04T06:53:18.369Z,46.97
2018-07-04T06:55:45.940Z,46.09
2018-07-04T06:58:13.233Z,45.27
2018-07-04T07:00:40.943Z,41.50
2018-07-04T07:03:20.622Z,39.76
2018-07-04T07:06:00.609Z,37.46
2018-07-04T07:08:40.470Z,37.78
2018-07-04T07:11:24.977Z,38.46
2018-07-04T07:14:05.111Z,38.32
2018-07-04T07:16:44.742Z,36.89
2018-07-04T07:19:24.705Z,38.00
2018-07-04T07:22:04.403Z,36.01
2018-07-04T07:24:44.230Z,37.06
2018-07-04T07:27:28.704Z,39.15
2018-07-04T07:30:11.022Z,39.66
2018-07-04T07:32:51.415Z,41.33
2018-07-04T07:35:35.235Z,41.98
2018-07-04T07:38:16.669Z,44.71
2018-07-04T07:41:00.134Z,44.47
2018-07-04T07:43:43.656Z,45.77
2018-07-04T07:46:23.623Z,46.71
2018-07-04T07:49:05.008Z,48.10
2018-07-04T07:51:45.945Z,47.60
2018-07-04T07:54:30.440Z,48.36
2018-07-04T07:57:10.325Z,48.74
2018-07-04T07:59:54.268Z,48.92
2018-07-04T08:02:45.002Z,49.65
2018-07-04T08:05:24.737Z,50.23
2018-07-04T08:08:04.735Z,50.57
2018-07-04T08:10:44.439Z,49.91
2018-07-04T08:13:25.462Z,51.02
2018-07-04T08:16:04.976Z,51.19
2018-07-04T08:18:45.271Z,51.71
2018-07-04T08:21:24.869Z,51.41
2018-07-04T08:24:04.720Z,50.78
2018-07-04T08:26:44.451Z,51.17
2018-07-04T08:29:25.840Z,51.01
2018-07-04T08:32:06.156Z,50.97
2018-07-04T08:34:47.235Z,50.29
2018-07-04T08:37:26.773Z,50.90
2018-07-04T08:40:07.531Z,50.13
2018-07-04T08:42:47.356Z,49.61
2018-07-04T08:45:27.172Z,49.76
2018-07-04T08:48:09.027Z,49.81
2018-07-04T08:50:50.090Z,49.09
2018-07-04T08:53:29.424Z,48.36
2018-07-04T08:56:09.587Z,48.18
2018-07-04T08:58:49.425Z,47.64
2018-07-04T09:01:30.619Z,47.84
2018-07-04T09:04:11.977Z,46.90
2018-07-04T09:06:53.329Z,46.11
2018-07-04T09:09:34.679Z,45.88
2018-07-04T09:12:14.487Z,44.90
2018-07-04T09:14:54.007Z,45.32
2018-07-04T09:17:38.141Z,44.61
2018-07-04T09:20:17.955Z,44.40
2018-07-04T09:22:57.871Z,43.81
2018-07-04T09:25:37.484Z,43.62
2018-07-04T09:28:17.669Z,43.89
2018-07-04T09:31:00.767Z,43.67
2018-07-04T09:33:41.996Z,44.81
2018-07-04T09:36:23.836Z,44.26
2018-07-04T09:39:03.995Z,43.74
2018-07-04T09:41:48.453Z,42.25
2018-07-04T09:44:28.546Z,41.48
2018-07-04T09:47:08.073Z,41.54
2018-07-04T09:49:48.054Z,42.03
2018-07-04T09:52:27.679Z,40.90
2018-07-04T09:55:07.500Z,38.92
2018-07-04T09:57:47.658Z,38.11
2018-07-04T10:00:30.049Z,38.47
2018-07-04T10:03:12.775Z,38.17
2018-07-04T10:05:54.887Z,36.02
2018-07-04T10:08:34.496Z,37.34
2018-07-04T10:11:14.165Z,36.43
2018-07-04T10:14:00.454Z,37.37
2018-07-04T10:16:40.147Z,36.67
2018-07-04T10:19:19.752Z,34.68
2018-07-04T10:22:00.950Z,34.46
2018-07-04T10:24:40.571Z,35.50
2018-07-04T10:27:20.349Z,34.11
2018-07-04T10:30:00.678Z,34.09
2018-07-04T10:32:40.518Z,33.20
2018-07-04T10:35:20.040Z,32.38
2018-07-04T10:38:00.060Z,32.69
2018-07-04T10:40:42.656Z,31.92
2018-07-04T10:43:22.474Z,32.20
2018-07-04T10:46:02.808Z,32.17
2018-07-04T10:48:42.748Z,32.04
2018-07-04T10:51:25.256Z,31.29
2018-07-04T10:54:06.353Z,29.20
2018-07-04T10:56:45.835Z,28.23
2018-07-04T10:59:29.226Z,27.49
2018-07-04T11:02:09.252Z,27.52
2018-07-04T11:04:49.415Z,27.91
2018-07-04T11:07:29.064Z,27.26
2018-07-04T11:10:08.973Z,26.84
2018-07-04T11:12:48.835Z,26.56
2018-07-04T11:15:33.471Z,27.93
2018-07-04T11:18:12.906Z,27.33
2018-07-04T11:23:38.648Z,26.23
2018-07-04T11:26:24.469Z,26.39
2018-07-04T11:29:03.980Z,26.43
2018-07-04T11:31:43.989Z,25.87
2018-07-04T11:34:23.524Z,25.58
2018-07-04T11:37:06.320Z,25.63
2018-07-04T11:39:46.383Z,25.34
2018-07-04T11:42:26.180Z,25.00
2018-07-04T11:45:08.777Z,25.19
2018-07-04T11:47:36.063Z,26.26
2018-07-04T11:50:10.327Z,25.49
2018-07-04T11:52:37.983Z,25.60
2018-07-04T11:55:05.564Z,26.54
2018-07-04T11:57:33.064Z,26.48
2018-07-04T12:00:00.357Z,26.30
2018-07-04T12:02:27.676Z,27.80
2018-07-04T12:05:07.511Z,29.30
2018-07-04T12:07:34.794Z,29.56
2018-07-04T12:10:02.752Z,30.36
2018-07-04T12:12:30.498Z,30.67
2018-07-04T12:14:57.788Z,30.47
2018-07-04T12:17:25.064Z,31.97
2018-07-04T12:19:52.540Z,32.93
2018-07-04T12:22:19.810Z,34.43
2018-07-04T12:24:47.096Z,35.85
2018-07-04T12:27:14.590Z,36.57
2018-07-04T12:29:41.884Z,37.34
2018-07-04T12:32:09.192Z,40.67
2018-07-04T12:34:36.671Z,44.61
2018-07-04T12:37:07.281Z,49.31
2018-07-04T12:39:34.559Z,56.23
2018-07-04T12:42:03.819Z,60.75
2018-07-04T12:44:31.092Z,61.93
2018-07-04T12:47:00.723Z,59.82
2018-07-04T12:49:29.006Z,61.33
2018-07-04T12:51:57.264Z,62.45
2018-07-04T12:54:30.514Z,64.19
2018-07-04T12:57:10.277Z,64.93
2018-07-04T12:59:50.116Z,65.25
2018-07-04T13:02:31.744Z,66.08
2018-07-04T13:05:12.330Z,66.01
2018-07-04T13:07:53.247Z,64.97
2018-07-04T13:10:32.737Z,62.91
2018-07-04T13:13:15.880Z,62.77
2018-07-04T13:15:55.952Z,63.10
2018-07-04T13:18:42.757Z,61.85
2018-07-04T13:21:22.703Z,61.19
2018-07-04T13:24:03.240Z,59.43
2018-07-04T13:26:43.232Z,56.54
2018-07-04T13:29:29.049Z,57.17
2018-07-04T13:32:08.659Z,56.44
2018-07-04T13:34:48.604Z,55.68
2018-07-04T13:37:28.208Z,53.69
2018-07-04T13:40:09.008Z,53.18
2018-07-04T13:42:48.619Z,51.86
2018-07-04T13:45:28.332Z,52.44
2018-07-04T13:48:10.632Z,51.23
2018-07-04T13:50:50.341Z,50.10
2018-07-04T13:53:32.944Z,49.68
2018-07-04T13:56:16.278Z,48.12
2018-07-04T13:58:59.961Z,47.29
2018-07-04T14:01:41.713Z,46.54
2018-07-04T14:04:22.617Z,44.38
2018-07-04T14:07:02.848Z,43.76
2018-07-04T14:09:42.460Z,43.14
2018-07-04T14:12:23.813Z,44.23
2018-07-04T14:15:03.361Z,41.96
2018-07-04T14:17:43.756Z,41.32
2018-07-04T14:20:29.229Z,41.88
2018-07-04T14:23:09.358Z,39.53
2018-07-04T14:25:48.938Z,39.43
2018-07-04T14:28:32.476Z,39.14
2018-07-04T14:31:12.770Z,38.13
2018-07-04T14:33:53.128Z,38.11
2018-07-04T14:36:32.688Z,36.58
2018-07-04T14:39:16.179Z,36.21
2018-07-04T14:41:55.816Z,36.12
2018-07-04T14:44:35.564Z,36.44
2018-07-04T14:47:25.824Z,34.53
2018-07-04T14:50:05.713Z,33.80
2018-07-04T14:52:45.347Z,31.98
2018-07-04T14:55:25.412Z,27.81
2018-07-04T14:58:05.010Z,25.21
2018-07-04T15:03:11.081Z,21.23
2018-07-04T15:08:35.085Z,18.95
2018-07-04T15:11:14.901Z,19.48
2018-07-04T15:13:54.841Z,18.46
2018-07-04T15:16:34.816Z,18.09
2018-07-04T15:19:14.423Z,18.58
2018-07-04T15:21:57.224Z,19.65
2018-07-04T15:24:37.883Z,22.44
2018-07-04T15:27:17.464Z,25.46
2018-07-04T15:29:57.318Z,28.14
2018-07-04T15:35:31.446Z,31.50
2018-07-04T15:38:13.869Z,32.54
2018-07-04T15:40:53.840Z,34.25
2018-07-04T15:43:33.526Z,34.39
2018-07-04T15:46:13.282Z,35.77
2018-07-04T15:48:52.978Z,35.62
2018-07-04T15:51:32.471Z,36.01
2018-07-04T15:56:58.578Z,38.13
2018-07-04T15:59:38.453Z,39.36
2018-07-04T16:02:18.324Z,39.48
2018-07-04T16:04:58.260Z,40.53
2018-07-04T16:07:41.071Z,40.82
2018-07-04T16:10:20.858Z,41.55
2018-07-04T16:13:04.669Z,44.02
2018-07-04T16:15:45.131Z,48.85
2018-07-04T16:18:28.529Z,53.65
2018-07-04T16:21:08.424Z,58.89
2018-07-04T16:23:48.268Z,59.48
2018-07-04T16:26:28.612Z,60.72
2018-07-04T16:29:08.312Z,58.55
2018-07-04T16:31:49.513Z,59.33
2018-07-04T16:34:29.227Z,59.50
2018-07-04T16:37:09.157Z,61.45
2018-07-04T16:39:48.704Z,62.23
2018-07-04T16:42:28.898Z,64.72
2018-07-04T16:45:09.509Z,63.91
2018-07-04T16:47:49.428Z,63.95
2018-07-04T16:50:30.072Z,62.03
2018-07-04T16:55:46.691Z,63.22
2018-07-04T16:58:31.674Z,62.57
2018-07-04T17:01:11.259Z,61.83
2018-07-04T17:03:51.570Z,61.60
2018-07-04T17:06:31.573Z,63.17
2018-07-04T17:09:15.285Z,59.58
2018-07-04T17:11:54.981Z,61.80
2018-07-04T17:14:36.143Z,54.26
2018-07-04T17:17:15.762Z,51.27
2018-07-04T17:19:57.349Z,51.88
2018-07-04T17:22:40.088Z,55.21
2018-07-04T17:25:20.016Z,55.08
2018-07-04T17:27:59.836Z,51.67
2018-07-04T17:30:40.915Z,53.66
2018-07-04T17:33:20.906Z,54.41
2018-07-04T17:36:00.950Z,54.54
2018-07-04T17:38:40.254Z,54.46
2018-07-04T17:41:21.779Z,55.22
2018-07-04T17:44:04.694Z,54.67
2018-07-04T17:46:45.699Z,56.32
2018-07-04T17:49:29.268Z,55.04
2018-07-04T17:52:09.322Z,55.91
2018-07-04T17:54:49.094Z,55.44
2018-07-04T17:57:30.184Z,56.03
2018-07-04T18:00:13.713Z,56.61
2018-07-04T18:02:53.928Z,58.55
2018-07-04T18:05:34.157Z,58.82
2018-07-04T18:08:14.102Z,59.92
2018-07-04T18:10:53.570Z,61.77
2018-07-04T18:13:34.203Z,60.75
2018-07-04T18:16:13.835Z,61.45
2018-07-04T18:18:54.968Z,61.03
2018-07-04T18:21:34.959Z,61.67
2018-07-04T18:24:15.040Z,60.92
2018-07-04T18:26:58.326Z,61.04
2018-07-04T18:29:39.417Z,61.41
2018-07-04T18:32:20.716Z,61.40
2018-07-04T18:35:01.476Z,59.83
2018-07-04T18:37:42.340Z,60.13
2018-07-04T18:40:24.933Z,60.79
2018-07-04T18:43:09.283Z,61.49
2018-07-04T18:45:49.340Z,60.92
2018-07-04T18:48:29.161Z,61.05
2018-07-04T18:51:10.929Z,61.12
2018-07-04T18:53:50.586Z,62.71
2018-07-04T18:56:36.904Z,63.28
2018-07-04T18:59:18.023Z,63.74
2018-07-04T19:02:08.940Z,63.63
2018-07-04T19:04:48.615Z,63.48
2018-07-04T19:07:29.563Z,63.83
2018-07-04T19:10:09.329Z,64.08
2018-07-04T19:12:49.247Z,62.82
2018-07-04T19:15:29.224Z,63.70
2018-07-04T19:18:09.166Z,64.07
2018-07-04T19:20:52.459Z,65.06
2018-07-04T19:23:32.790Z,64.64
2018-07-04T19:26:12.779Z,63.79
2018-07-04T19:28:54.232Z,63.47
2018-07-04T19:31:33.941Z,64.51
2018-07-04T19:34:13.743Z,64.39
2018-07-04T19:36:53.504Z,64.36
2018-07-04T19:39:33.535Z,64.32
2018-07-04T19:42:13.726Z,64.59
2018-07-04T19:44:53.293Z,65.14
2018-07-04T19:47:32.978Z,65.34
2018-07-04T19:50:13.866Z,64.44
2018-07-04T19:52:53.551Z,64.39
2018-07-04T19:55:33.760Z,63.91
2018-07-04T19:58:13.972Z,64.08
2018-07-04T20:00:54.175Z,65.23
2018-07-04T20:03:34.345Z,64.77
2018-07-04T20:06:14.178Z,64.82
2018-07-04T20:08:57.451Z,64.57
2018-07-04T20:11:41.055Z,65.02
2018-07-04T20:14:21.048Z,65.12
2018-07-04T20:17:01.054Z,65.57
2018-07-04T20:19:40.877Z,65.63
2018-07-04T20:22:20.889Z,64.88
2018-07-04T20:25:00.649Z,65.05
2018-07-04T20:27:42.405Z,65.86
2018-07-04T20:30:22.147Z,65.57
2018-07-04T20:33:04.025Z,65.62
2018-07-04T20:35:44.056Z,66.60
2018-07-04T20:38:27.324Z,66.69
2018-07-04T20:41:08.298Z,67.03
2018-07-04T20:43:49.304Z,66.15
2018-07-04T20:46:29.040Z,67.19
2018-07-04T20:49:12.730Z,65.87
2018-07-04T20:51:52.993Z,65.38
2018-07-04T20:54:33.085Z,65.32
2018-07-04T20:57:14.805Z,65.49
2018-07-04T20:59:54.801Z,65.73
2018-07-04T21:02:34.664Z,66.33
2018-07-04T21:05:14.454Z,65.37
2018-07-04T21:07:54.383Z,65.45
2018-07-04T21:10:34.432Z,66.09
2018-07-04T21:13:14.047Z,65.97
2018-07-04T21:15:54.027Z,65.68
2018-07-04T21:18:42.387Z,65.02
2018-07-04T21:21:22.463Z,66.15
2018-07-04T21:24:04.792Z,66.50
2018-07-04T21:26:44.603Z,66.75
2018-07-04T21:29:24.077Z,67.09
2018-07-04T21:32:05.534Z,66.70
2018-07-04T21:34:45.168Z,66.57
2018-07-04T21:37:25.112Z,66.74
2018-07-04T21:40:04.817Z,67.20
2018-07-04T21:42:44.728Z,67.67
2018-07-04T21:45:24.177Z,67.40
2018-07-04T21:48:04.351Z,68.10
2018-07-04T21:50:45.448Z,68.19
2018-07-04T21:53:28.916Z,68.90
2018-07-04T21:56:08.667Z,68.02
2018-07-04T21:58:51.715Z,67.71
2018-07-04T22:04:04.546Z,68.09
2018-07-04T22:06:44.087Z,67.54
2018-07-04T22:09:24.545Z,67.42
2018-07-04T22:12:04.243Z,67.89
2018-07-04T22:14:44.997Z,67.57
2018-07-04T22:17:24.747Z,67.58
2018-07-04T22:20:05.084Z,66.96
2018-07-04T22:22:44.866Z,67.72
2018-07-04T22:27:54.236Z,67.95
2018-07-04T22:30:34.146Z,67.66
2018-07-04T22:33:13.800Z,66.89
2018-07-04T22:35:53.828Z,67.91
2018-07-04T22:38:33.648Z,68.05
2018-07-04T22:41:13.565Z,67.92
2018-07-04T22:43:53.256Z,68.53
2018-07-04T22:49:23.332Z,68.73
2018-07-04T22:52:06.491Z,69.45
2018-07-04T22:54:46.130Z,69.32
2018-07-04T22:57:27.854Z,69.08
2018-07-04T23:00:07.609Z,70.05
2018-07-04T23:02:47.603Z,69.77
2018-07-04T23:05:29.299Z,69.53
2018-07-04T23:08:09.223Z,69.65
2018-07-04T23:10:52.696Z,69.95
2018-07-04T23:13:32.450Z,70.04
2018-07-04T23:16:16.159Z,70.32
2018-07-04T23:18:56.292Z,70.82
2018-07-04T23:21:35.904Z,71.03
2018-07-04T23:24:20.411Z,70.99
2018-07-04T23:27:00.090Z,71.84
2018-07-04T23:29:43.181Z,71.74
2018-07-04T23:32:22.868Z,71.47
2018-07-04T23:35:02.807Z,71.26
2018-07-04T23:37:42.408Z,71.43
2018-07-04T23:40:22.491Z,71.27
2018-07-04T23:43:02.058Z,71.14
2018-07-04T23:45:42.289Z,71.76
2018-07-04T23:48:25.237Z,71.51
2018-07-04T23:51:05.256Z,70.75
2018-07-04T23:53:49.028Z,71.42
2018-07-04T23:56:33.151Z,71.74
2018-07-04T23:59:16.544Z,72.95
